Thursday, November 15, 2018, 8:36 PM EST
Back to Local

KTHV, York Airport

Location: Spring Grove, PA, United States Lat: 39.917
Local Time: 8:36 PM EST ( 1:36 GMT) Lon: -76.883
Time Zone: US/Eastern Elev: 478 ft

Show me the last for .
Show Decoded

2018-11-15 20:03 METAR KTHV 160103Z AUTO 06008KT 3SM -RA BR OVC007 01/00 A2988 RMK AO2 CIG
                 005V010 P0000 I1000 T00060000 =
2018-11-15 19:53 METAR KTHV 160053Z AUTO 06009KT 2 1/2SM -RA BR OVC007 01/M01 A2989 RMK AO2
                 UPB15E49RAB49FZRAE15 CIG 005V010 PRESFR SLP128 P0006 I1001 T00061006 =
2018-11-15 19:46 METAR KTHV 160046Z AUTO 05009KT 2 1/2SM UP BR OVC007 01/M01 A2990 RMK AO2
                 UPB15FZRAE15 CIG 005V010 P0005 I1001 T00061006 =
2018-11-15 19:29 METAR KTHV 160029Z AUTO 06009KT 3SM UP BR OVC007 00/M01 A2992 RMK AO2
                 UPB15FZRAE15 CIG 005V011 P0004 I1001 T00001006 =
2018-11-15 19:15 METAR KTHV 160015Z AUTO 06010G17KT 2 1/2SM UP BR OVC007 00/M01 A2993 RMK AO2
                 UPB15FZRAE15 CIG 005V011 PRESFR P0004 I1001 T00001006 =
2018-11-15 19:09 METAR KTHV 160009Z AUTO 05009KT 2 1/2SM FZRA BR OVC007 00/M01 A2994 RMK AO2 CIG
                 005V010 P0003 I1001 T00001006 =
2018-11-15 18:53 METAR KTHV 152353Z AUTO 08013G22KT 4SM -FZRA BR OVC007 00/M01 A2995 RMK AO2 CIG
                 005V010 SLP151 P0008 60059 I1007 I6016 T00001011 10000 21022 58036 =
2018-11-15 18:37 METAR KTHV 152337Z AUTO 07011KT 4SM -FZRA BR OVC007 00/M01 A2996 RMK AO2 CIG
                 005V010 P0008 I1005 T00001011 =
2018-11-15 18:30 METAR KTHV 152330Z AUTO 06011KT 3SM -FZRA BR OVC008 00/M01 A2996 RMK AO2 CIG
                 005V011 PRESFR P0007 I1005 T00001011 =
2018-11-15 18:18 METAR KTHV 152318Z AUTO 07009G20KT 2 1/2SM FZRA BR OVC008 M01/M01 A2999 RMK AO2
                 CIG 005V011 PRESFR P0006 I1004 T10061011 =
2018-11-15 18:14 METAR KTHV 152314Z AUTO 06008KT 3SM -FZRA BR OVC008 M01/M01 A3000 RMK AO2 CIG
                 005V011 PRESFR P0004 I1003 T10061011 =
2018-11-15 17:53 METAR KTHV 152253Z AUTO 07010G17KT 2 1/2SM FZRA BR OVC008 M01/M02 A3003 RMK AO2
                 CIG 006V011 SLP176 P0009 I1006 T10061017 =
2018-11-15 17:32 METAR KTHV 152232Z AUTO 07011G20KT 4SM FZRA BR OVC008 M01/M02 A3003 RMK AO2
                 PRESFR P0004 I1002 T10061017 =
2018-11-15 16:57 METAR KTHV 152157Z AUTO 07011G22KT 3SM -FZRA BR OVC008 M01/M02 A3006 RMK AO2 CIG
                 007V012 P0001 I1000 T10111022 =
2018-11-15 16:53 METAR KTHV 152153Z AUTO 07014G22KT 3SM FZRA BR OVC010 M01/M03 A3006 RMK AO2
                 UPE10FZRAB10 CIG 007V012 SLP188 P0005 I1003 T10111028 =
2018-11-15 16:10 METAR KTHV 152110Z AUTO 07010KT 3SM -FZRA BR OVC012 M02/M03 A3012 RMK AO2
                 UPE10FZRAB10 P0002 I1001 T10171028 =
2018-11-15 15:53 METAR KTHV 152053Z AUTO 07014G18KT 3SM UP BR BKN009 OVC016 M02/M03 A3014 RMK AO2
                 UPB37SNE37 SLP212 P0009 60037 T10171033 56031 =
2018-11-15 15:36 METAR KTHV 152036Z AUTO 06008KT 2 1/2SM -SN BR BKN009 OVC018 M02/M03 A3014 RMK
                 AO2 P0007 T10171028 =
2018-11-15 15:27 METAR KTHV 152027Z AUTO 07008KT 1 1/4SM -SN BR BKN009 OVC025 M02/M03 A3015 RMK
                 AO2 PRESFR P0006 T10171028 =
2018-11-15 15:12 METAR KTHV 152012Z AUTO 05007KT 3/4SM -SN BR BKN009 OVC015 M02/M03 A3017 RMK AO2
                 P0003 T10171028 =
2018-11-15 15:02 METAR KTHV 152002Z AUTO 05005KT 3/4SM -SN BR BKN007 OVC017 M02/M03 A3017 RMK AO2
                 P0001 T10171028 =
2018-11-15 14:53 METAR KTHV 151953Z AUTO 05007KT 3/4SM -SN BR SCT007 OVC014 M02/M03 A3018 RMK AO2
                 SLP228 P0015 T10221028 =
2018-11-15 14:39 METAR KTHV 151939Z AUTO 04008KT 3/4SM -SN BR FEW007 OVC012 M02/M03 A3019 RMK AO2
                 P0013 T10221028 =
2018-11-15 14:31 METAR KTHV 151931Z AUTO 04005KT 1/2SM -SN FZFG VV009 M02/M03 A3020 RMK AO2 P0011
                 T10221028 =
2018-11-15 14:13 METAR KTHV 151913Z AUTO 04005KT 1/4SM SN FZFG VV007 M02/M03 A3022 RMK AO2 P0006
                 T10221028 =
2018-11-15 13:53 METAR KTHV 151853Z AUTO 05005KT 1/4SM +SN FZFG VV009 M02/M03 A3023 RMK AO2
                 SLP244 P0013 T10171028 =
2018-11-15 13:36 METAR KTHV 151836Z AUTO 06006KT 3/4SM -SN BR BKN008 OVC015 M02/M03 A3023 RMK AO2
                 P0009 T10221028 =
2018-11-15 13:11 METAR KTHV 151811Z AUTO 07008KT 1/2SM SN FZFG FEW005 OVC011 M02/M03 A3023 RMK
                 AO2 P0003 T10221028 =
2018-11-15 13:04 METAR KTHV 151804Z AUTO 07008KT 1/4SM SN FZFG VV007 M02/M03 A3024 RMK AO2 PRESFR
                 P0003 T10221028 =
2018-11-15 12:53 METAR KTHV 151753Z AUTO 07009KT 1/4SM +SN FZFG VV005 M02/M03 A3026 RMK AO2
                 SLP256 P0018 60040 T10221028 11006 21022 58051 =
2018-11-15 12:22 METAR KTHV 151722Z AUTO 08008KT M1/4SM +SN FZFG VV004 M02/M03 A3031 RMK AO2
                 PRESFR P0008 T10221028 =
2018-11-15 12:09 METAR KTHV 151709Z AUTO 06006KT 1/4SM +SN FZFG VV005 M02/M03 A3034 RMK AO2 P0004
                 T10221028 =
2018-11-15 11:53 METAR KTHV 151653Z AUTO 07006KT 1/4SM +SN FZFG VV006 M02/M03 A3036 RMK AO2
                 SLP289 P0011 T10221033 =
2018-11-15 11:10 METAR KTHV 151610Z AUTO 06005KT 1/4SM +SN FZFG VV007 M02/M03 A3038 RMK AO2 P0003
                 T10221033 =
2018-11-15 10:53 METAR KTHV 151553Z AUTO 06003KT 1/4SM +SN FZFG FEW005 OVC009 M02/M03 A3040 RMK
                 AO2 SLP301 P0008 T10221033 =
2018-11-15 10:34 METAR KTHV 151534Z AUTO 06004KT 1/4SM SN FZFG VV009 M02/M03 A3040 RMK AO2 P0004
                 T10221028 =
2018-11-15 09:53 METAR KTHV 151453Z AUTO 06006KT 1/2SM SN FZFG VV014 M02/M03 A3041 RMK AO2 SLP307
                 P0003 60003 T10221033 58025 =
2018-11-15 09:34 METAR KTHV 151434Z AUTO 09007KT 3/4SM -SN BR OVC021 M02/M04 A3042 RMK AO2 P0003
                 T10221039 =
2018-11-15 09:20 METAR KTHV 151420Z AUTO 09008KT 1 1/4SM -SN OVC025 M02/M04 A3043 RMK AO2 P0002
                 T10171044 =
2018-11-15 09:06 METAR KTHV 151406Z AUTO 10009KT 3/4SM -SN VV019 M02/M05 A3044 RMK AO2 P0001
                 T10171050 =
2018-11-15 09:00 METAR KTHV 151400Z AUTO 10008KT 1 1/2SM -SN BKN020 OVC031 M01/M06 A3045 RMK AO2
                 P0000 T10111056 =
2018-11-15 08:53 METAR KTHV 151353Z AUTO 11008KT 2SM -SN BKN022 OVC030 M01/M06 A3045 RMK AO2
                 UPB38E46SNB46 SLP318 P0000 T10111061 =
2018-11-15 08:51 METAR KTHV 151351Z AUTO 10009KT 2 1/2SM -SN BKN024 OVC030 M01/M07 A3045 RMK AO2
                 UPB38E46SNB46 P0000 =
2018-11-15 07:53 METAR KTHV 151253Z AUTO 10007KT 10SM BKN033 OVC100 M01/M08 A3047 RMK AO2 SLP325
                 T10061078 =
2018-11-15 06:53 METAR KTHV 151153Z AUTO 09005KT 10SM BKN037 OVC120 M01/M08 A3049 RMK AO2 SLP333
                 T10061078 10000 21006 55009 =
2018-11-15 05:53 METAR KTHV 151053Z AUTO 09008KT 10SM CLR M01/M08 A3048 RMK AO2 SLP330 T10061078
                 =
2018-11-15 04:53 METAR KTHV 150953Z AUTO 10007KT 10SM CLR M01/M08 A3049 RMK AO2 SLP331 T10061078
                 =
2018-11-15 03:53 METAR KTHV 150853Z AUTO 07005KT 10SM CLR M01/M07 A3052 RMK AO2 SLP342 T10061072
                 58009 =
2018-11-15 02:53 METAR KTHV 150753Z AUTO 10007KT 10SM CLR 00/M07 A3054 RMK AO2 SLP348 T00001072 =
2018-11-15 01:53 METAR KTHV 150653Z AUTO 10007KT 10SM CLR 00/M07 A3055 RMK AO2 SLP352 T00001072 =
2018-11-15 00:53 METAR KTHV 150553Z AUTO 09006KT 10SM CLR 00/M07 A3055 RMK AO2 SLP351 T00001072
                 10017 20000 52003 =
2018-11-14 23:53 METAR KTHV 150453Z AUTO 07005KT 10SM CLR 01/M07 A3054 RMK AO2 SLP349 T00061067
                 400560000 =
2018-11-14 22:53 METAR KTHV 150353Z AUTO 05005KT 10SM CLR 01/M07 A3054 RMK AO2 SLP350 T00061067 =
2018-11-14 21:53 METAR KTHV 150253Z AUTO 05003KT 10SM CLR 01/M06 A3054 RMK AO2 SLP347 T00111061
                 50014 =
2018-11-14 20:53 METAR KTHV 150153Z AUTO 00000KT 10SM CLR 01/M06 A3054 RMK AO2 SLP351 T00111061 =

Support USWX by starting your Amazon purchase here.